Time;durP1;ratioP1;P1;durP2;ratioP2;P2;SDS_P1;SDS_P2;PMS_P1;PMS_P2;Temp;Humidity;BMP_temperature;BMP_pressure;BME280_temperature;BME280_humidity;BME280_pressure;Samples;Min_cycle;Max_cycle;Signal;HPM_P1;HPM_P2
2022/10/31 00:00:30;;;;;;;21.90;10.50;;;10.40;99.90;;;;;;5055006;28;20219;-82
2022/10/31 00:02:56;;;;;;;20.87;10.83;;;10.40;99.90;;;;;;5054950;28;20187;-81
2022/10/31 00:05:21;;;;;;;27.80;11.87;;;10.40;99.90;;;;;;5055049;28;20606;-81
2022/10/31 00:07:47;;;;;;;20.60;9.60;;;10.30;99.90;;;;;;5054540;28;20535;-82
2022/10/31 00:10:12;;;;;;;18.63;10.47;;;10.20;99.90;;;;;;5037132;28;20606;-82
2022/10/31 00:12:38;;;;;;;14.33;9.17;;;10.20;99.90;;;;;;5037220;28;20592;-82
2022/10/31 00:15:04;;;;;;;18.27;9.47;;;10.20;99.90;;;;;;5054824;28;20644;-82
2022/10/31 00:17:30;;;;;;;19.40;9.33;;;10.20;99.90;;;;;;5054586;28;20551;-81
2022/10/31 00:19:56;;;;;;;23.10;10.53;;;10.20;99.90;;;;;;5036734;28;20214;-81
2022/10/31 00:22:22;;;;;;;17.37;9.57;;;10.20;99.90;;;;;;5054917;28;20198;-81
2022/10/31 00:24:47;;;;;;;21.73;9.73;;;10.10;99.90;;;;;;5036898;28;20176;-81
2022/10/31 00:27:13;;;;;;;21.60;10.13;;;10.00;99.90;;;;;;5054487;28;20582;-81
2022/10/31 00:29:39;;;;;;;19.63;9.47;;;10.00;99.90;;;;;;5054603;28;20716;-82
2022/10/31 00:32:04;;;;;;;18.23;9.27;;;10.00;99.90;;;;;;5054354;28;20682;-82
2022/10/31 00:34:30;;;;;;;18.53;10.10;;;9.90;99.90;;;;;;5036886;28;20218;-81
2022/10/31 00:36:55;;;;;;;21.37;10.67;;;9.90;99.90;;;;;;5036646;28;20517;-82
2022/10/31 00:39:21;;;;;;;16.90;10.23;;;9.90;99.90;;;;;;5036739;28;20199;-82
2022/10/31 00:41:47;;;;;;;17.33;9.13;;;9.80;99.90;;;;;;5053625;28;20188;-82
2022/10/31 00:44:12;;;;;;;20.03;9.43;;;9.80;99.90;;;;;;5036699;28;20176;-82
2022/10/31 00:46:38;;;;;;;27.50;11.37;;;9.70;99.90;;;;;;5036606;28;20182;-82
2022/10/31 00:49:03;;;;;;;22.90;11.27;;;9.60;99.90;;;;;;5054111;28;20209;-82
2022/10/31 00:51:29;;;;;;;21.80;10.50;;;9.60;99.90;;;;;;5053834;28;20191;-82
2022/10/31 00:53:55;;;;;;;22.37;11.33;;;9.50;99.90;;;;;;5053777;28;20186;-82
2022/10/31 00:56:20;;;;;;;25.87;11.57;;;9.40;99.90;;;;;;5053831;28;20654;-82
2022/10/31 00:58:46;;;;;;;29.90;13.40;;;9.40;99.90;;;;;;5054070;28;20215;-81
2022/10/31 01:01:12;;;;;;;31.30;12.90;;;9.30;99.90;;;;;;5053905;28;20263;-81
2022/10/31 01:03:38;;;;;;;20.67;10.13;;;9.20;99.90;;;;;;5053688;28;20215;-82
2022/10/31 01:06:12;;;;;;;19.07;10.07;;;9.10;99.90;;;;;;5019792;28;20211;-81
2022/10/31 01:08:38;;;;;;;18.17;9.40;;;9.10;99.90;;;;;;5053600;28;20180;-82
2022/10/31 01:11:11;;;;;;;17.37;8.67;;;9.10;99.90;;;;;;5053288;28;20172;-82
2022/10/31 01:13:37;;;;;;;21.90;10.07;;;9.10;99.90;;;;;;5053943;28;20168;-82
2022/10/31 01:16:05;;;;;;;27.83;12.10;;;9.00;99.90;;;;;;5053969;28;20238;-82
2022/10/31 01:18:31;;;;;;;21.77;10.70;;;9.00;99.90;;;;;;5036161;28;20214;-82
2022/10/31 01:21:01;;;;;;;17.20;9.93;;;9.00;99.90;;;;;;5053543;28;20203;-82
2022/10/31 01:23:27;;;;;;;22.77;12.70;;;9.00;99.90;;;;;;5053368;28;20616;-82
2022/10/31 01:26:12;;;;;;;21.60;13.17;;;9.00;99.90;;;;;;5053627;28;20625;-82
2022/10/31 01:28:44;;;;;;;23.57;9.90;;;8.90;99.90;;;;;;5053518;28;20331;-81
2022/10/31 01:31:10;;;;;;;20.90;9.73;;;8.90;99.90;;;;;;5035580;28;20624;-82
2022/10/31 01:33:36;;;;;;;21.73;11.07;;;8.80;99.90;;;;;;5053693;28;20179;-81
2022/10/31 01:36:15;;;;;;;22.30;9.57;;;8.80;99.90;;;;;;5035954;28;20226;-82
2022/10/31 01:38:40;;;;;;;18.20;8.27;;;8.80;99.90;;;;;;5053662;28;20215;-81
2022/10/31 01:41:07;;;;;;;16.07;8.03;;;8.70;99.90;;;;;;5054193;28;20184;-81
2022/10/31 01:43:49;;;;;;;15.67;7.97;;;8.70;99.90;;;;;;5053491;28;20302;-81
2022/10/31 01:46:18;;;;;;;13.63;7.60;;;8.70;99.90;;;;;;5053576;28;20258;-81
2022/10/31 01:48:44;;;;;;;13.93;6.87;;;8.60;99.90;;;;;;5055656;28;20262;-81
2022/10/31 01:51:12;;;;;;;12.37;7.03;;;8.60;99.90;;;;;;5054604;28;20234;-81
2022/10/31 01:53:39;;;;;;;14.27;7.97;;;8.60;99.90;;;;;;5053713;28;20223;-81
2022/10/31 01:56:06;;;;;;;14.13;8.13;;;8.60;99.90;;;;;;5053879;28;20275;-82
2022/10/31 01:58:32;;;;;;;16.70;9.17;;;8.60;99.90;;;;;;5053976;28;20294;-81
2022/10/31 02:01:01;;;;;;;18.43;9.00;;;8.60;99.90;;;;;;5055010;28;20191;-82
2022/10/31 02:03:28;;;;;;;20.23;9.83;;;8.60;99.90;;;;;;5037046;28;20179;-81
2022/10/31 02:05:55;;;;;;;22.13;10.30;;;8.60;99.90;;;;;;5056348;28;20180;-81
2022/10/31 02:08:28;;;;;;;19.73;10.00;;;8.60;99.90;;;;;;5077778;28;20235;-81
2022/10/31 02:10:56;;;;;;;18.23;9.17;;;8.50;99.90;;;;;;5078036;28;20219;-81
2022/10/31 02:13:22;;;;;;;17.20;9.70;;;8.50;99.90;;;;;;5077643;28;20268;-82
2022/10/31 02:15:52;;;;;;;19.80;8.43;;;8.50;99.90;;;;;;5057430;28;20656;-81
2022/10/31 02:18:19;;;;;;;17.07;7.83;;;8.40;99.90;;;;;;5056073;28;20210;-81
2022/10/31 02:21:00;;;;;;;15.07;7.90;;;8.40;99.90;;;;;;5057519;28;20207;-81
2022/10/31 02:23:47;;;;;;;15.83;7.00;;;8.30;99.90;;;;;;5077406;28;20160;-81
2022/10/31 02:26:20;;;;;;;15.47;8.37;;;8.30;99.90;;;;;;5077691;28;20160;-80
2022/10/31 02:29:00;;;;;;;16.20;8.20;;;8.20;99.90;;;;;;5061009;28;20160;-79
2022/10/31 02:31:52;;;;;;;17.23;7.97;;;8.20;99.90;;;;;;5054265;28;20755;-81
2022/10/31 02:34:55;;;;;;;19.67;8.67;;;8.10;99.90;;;;;;5054215;28;20271;-80
2022/10/31 02:37:56;;;;;;;25.87;11.30;;;8.10;99.90;;;;;;5018673;28;20248;-80
2022/10/31 02:40:53;;;;;;;27.83;12.23;;;8.10;99.90;;;;;;4953283;29;20195;-80
2022/10/31 02:43:30;;;;;;;19.50;10.27;;;8.10;99.90;;;;;;5025229;28;20195;-80
2022/10/31 02:46:21;;;;;;;20.33;9.37;;;8.00;99.90;;;;;;5053758;28;20152;-80
2022/10/31 02:48:51;;;;;;;16.23;9.00;;;8.00;99.90;;;;;;5054612;28;20172;-80
2022/10/31 02:51:17;;;;;;;22.60;9.63;;;8.00;99.90;;;;;;5053775;28;20183;-82
2022/10/31 02:53:43;;;;;;;17.97;8.40;;;8.00;99.90;;;;;;5054367;28;20188;-79
2022/10/31 02:56:19;;;;;;;13.00;7.73;;;8.00;99.90;;;;;;5053699;28;20191;-80
2022/10/31 02:58:50;;;;;;;17.33;7.77;;;8.00;99.90;;;;;;5053474;28;20203;-82
2022/10/31 03:02:05;;;;;;;18.33;8.03;;;8.00;99.90;;;;;;5052696;28;20173;-80
2022/10/31 03:04:36;;;;;;;18.97;7.23;;;8.10;99.90;;;;;;5030437;28;20648;-80
2022/10/31 03:07:33;;;;;;;14.33;7.27;;;8.00;99.90;;;;;;5056489;28;20207;-80
2022/10/31 03:09:58;;;;;;;15.37;7.87;;;8.00;99.90;;;;;;5038866;28;20188;-80
2022/10/31 03:12:27;;;;;;;13.00;6.90;;;7.90;99.90;;;;;;5038133;28;20187;-81
2022/10/31 03:14:58;;;;;;;15.37;7.40;;;8.00;99.90;;;;;;5038279;28;20171;-80
2022/10/31 03:17:35;;;;;;;12.40;6.97;;;8.00;99.90;;;;;;5056007;28;20195;-81
2022/10/31 03:20:03;;;;;;;12.03;6.83;;;8.10;99.90;;;;;;5056276;28;20200;-80
2022/10/31 03:22:32;;;;;;;19.07;9.53;;;8.10;99.90;;;;;;5055640;28;20180;-80
2022/10/31 03:25:02;;;;;;;12.70;6.00;;;8.10;99.90;;;;;;5038283;28;20570;-80
2022/10/31 03:27:32;;;;;;;11.00;7.07;;;8.10;99.90;;;;;;5055815;28;20168;-80
2022/10/31 03:30:01;;;;;;;10.60;6.07;;;8.10;99.90;;;;;;5021781;28;20271;-81
2022/10/31 03:32:48;;;;;;;9.47;6.80;;;8.10;99.90;;;;;;5055711;28;20210;-81
2022/10/31 03:35:17;;;;;;;16.90;8.27;;;8.10;99.90;;;;;;5056141;28;20168;-80
2022/10/31 03:37:43;;;;;;;15.47;7.97;;;8.10;99.90;;;;;;5055370;28;20179;-80
2022/10/31 03:40:12;;;;;;;20.60;7.90;;;8.10;99.90;;;;;;5055355;28;20204;-80
2022/10/31 03:42:43;;;;;;;16.77;8.63;;;8.10;99.90;;;;;;5055586;28;20172;-80
2022/10/31 03:45:14;;;;;;;18.87;7.83;;;8.00;99.90;;;;;;5055414;28;20171;-80
2022/10/31 03:47:42;;;;;;;13.23;7.07;;;7.90;99.90;;;;;;5037686;28;20183;-80
2022/10/31 03:50:10;;;;;;;17.30;8.60;;;7.90;99.90;;;;;;5055392;28;20309;-80
2022/10/31 03:52:51;;;;;;;14.23;8.60;;;7.90;99.90;;;;;;5037599;28;20230;-80
2022/10/31 03:55:28;;;;;;;14.33;7.80;;;7.80;99.90;;;;;;5055372;28;20160;-81
2022/10/31 03:58:03;;;;;;;16.63;7.73;;;7.70;99.90;;;;;;5055159;28;20194;-80
2022/10/31 04:00:33;;;;;;;15.07;7.60;;;7.60;99.90;;;;;;5055221;28;20160;-80
2022/10/31 04:03:05;;;;;;;18.77;8.87;;;7.60;99.90;;;;;;5055179;28;20658;-80
2022/10/31 04:05:31;;;;;;;20.97;9.93;;;7.60;99.90;;;;;;5055252;28;20171;-80
2022/10/31 04:07:59;;;;;;;18.23;8.90;;;7.60;99.90;;;;;;5037612;28;20183;-81
2022/10/31 04:10:26;;;;;;;22.37;8.63;;;7.60;99.90;;;;;;5055067;28;20637;-80
2022/10/31 04:13:01;;;;;;;18.13;8.43;;;7.60;99.90;;;;;;5037335;28;20175;-80
2022/10/31 04:15:28;;;;;;;18.80;8.57;;;7.50;99.90;;;;;;5054207;28;20168;-81
2022/10/31 04:17:57;;;;;;;18.73;9.53;;;7.50;99.90;;;;;;5053570;28;20168;-81
2022/10/31 04:20:34;;;;;;;21.13;8.63;;;7.50;99.90;;;;;;5054916;28;20192;-81
2022/10/31 04:23:01;;;;;;;14.30;7.83;;;7.40;99.90;;;;;;5054669;28;20160;-81
2022/10/31 04:25:27;;;;;;;19.03;8.43;;;7.30;99.90;;;;;;5054536;28;20180;-80
2022/10/31 04:27:53;;;;;;;16.47;8.47;;;7.20;99.90;;;;;;5037007;28;20624;-79
2022/10/31 04:30:18;;;;;;;18.30;9.67;;;7.20;99.90;;;;;;5054553;28;20180;-81
2022/10/31 04:32:44;;;;;;;15.73;7.43;;;;;;;;;;5036675;28;20175;-81
2022/10/31 04:35:10;;;;;;;21.97;9.53;;;;;;;;;;5054456;28;20184;-80
2022/10/31 04:37:36;;;;;;;12.93;7.83;;;7.10;99.90;;;;;;5054291;28;20188;-81
2022/10/31 04:40:03;;;;;;;14.53;8.50;;;7.10;99.90;;;;;;5036650;28;20582;-81
2022/10/31 04:42:31;;;;;;;16.70;9.27;;;7.10;99.90;;;;;;5054401;28;20198;-80
2022/10/31 04:44:57;;;;;;;16.57;8.07;;;7.10;99.90;;;;;;5020290;28;20226;-80
2022/10/31 04:47:22;;;;;;;15.27;8.33;;;7.10;99.90;;;;;;5054592;28;20184;-80
2022/10/31 04:49:48;;;;;;;14.60;8.03;;;7.00;99.90;;;;;;5054234;28;20582;-80
2022/10/31 04:52:14;;;;;;;16.33;7.67;;;7.00;99.90;;;;;;5054395;28;20235;-80
2022/10/31 04:54:39;;;;;;;9.13;5.93;;;7.00;99.90;;;;;;5054347;28;20644;-80
2022/10/31 04:57:05;;;;;;;18.17;7.57;;;6.90;99.90;;;;;;5053905;28;20230;-80
2022/10/31 04:59:31;;;;;;;14.43;6.73;;;6.90;99.90;;;;;;5053559;28;20225;-81
2022/10/31 05:01:56;;;;;;;10.90;6.20;;;6.90;99.90;;;;;;5053729;28;20199;-81
2022/10/31 05:04:22;;;;;;;12.47;6.57;;;6.90;99.90;;;;;;5053813;28;20180;-80
2022/10/31 05:06:48;;;;;;;10.43;6.07;;;6.80;99.90;;;;;;5053502;28;20210;-80
2022/10/31 05:09:14;;;;;;;14.40;5.40;;;6.80;99.90;;;;;;5036233;28;20184;-81
2022/10/31 05:11:40;;;;;;;10.33;6.00;;;6.40;99.90;;;;;;5052897;28;20184;-80
2022/10/31 05:14:06;;;;;;;11.73;6.57;;;6.80;99.90;;;;;;5034929;28;20298;-80
2022/10/31 05:16:31;;;;;;;10.67;6.57;;;6.80;99.90;;;;;;5052809;28;20186;-80
2022/10/31 05:18:57;;;;;;;12.00;7.50;;;6.80;99.90;;;;;;5053142;28;20216;-80
2022/10/31 05:21:23;;;;;;;17.77;6.60;;;6.90;99.90;;;;;;5035549;28;20374;-80
2022/10/31 05:23:48;;;;;;;12.10;6.57;;;6.80;99.90;;;;;;5019153;28;20180;-80
2022/10/31 05:26:14;;;;;;;14.93;7.20;;;6.90;99.90;;;;;;5053058;28;20184;-80
2022/10/31 05:28:40;;;;;;;17.70;6.13;;;6.90;99.90;;;;;;5035655;28;20211;-82
2022/10/31 05:31:05;;;;;;;9.67;6.40;;;6.90;99.90;;;;;;5052890;28;20249;-82
2022/10/31 05:33:31;;;;;;;14.20;6.00;;;6.90;99.90;;;;;;5052828;28;20184;-82
2022/10/31 05:35:57;;;;;;;11.67;6.53;;;;;;;;;;5052429;28;20241;-82
2022/10/31 05:38:23;;;;;;;24.53;6.63;;;6.90;99.90;;;;;;5051611;28;20249;-82
2022/10/31 05:40:48;;;;;;;12.17;6.77;;;6.80;99.90;;;;;;5051539;28;20274;-82
2022/10/31 05:43:14;;;;;;;13.23;6.90;;;6.80;99.90;;;;;;5033852;28;20234;-84
2022/10/31 05:45:40;;;;;;;20.50;6.50;;;6.80;99.90;;;;;;5050498;28;20176;-82
2022/10/31 05:48:05;;;;;;;14.43;7.10;;;6.90;99.90;;;;;;5033468;28;20701;-82
2022/10/31 05:50:32;;;;;;;16.67;8.57;;;6.90;99.90;;;;;;5033461;28;20194;-82
2022/10/31 05:53:00;;;;;;;18.73;8.90;;;7.00;99.90;;;;;;5052352;28;20224;-82
2022/10/31 05:55:26;;;;;;;16.53;6.87;;;7.00;99.90;;;;;;5051752;28;20176;-83
2022/10/31 05:57:53;;;;;;;14.77;7.30;;;7.10;99.90;;;;;;5051282;28;20180;-83
2022/10/31 06:00:19;;;;;;;20.80;8.67;;;7.10;99.90;;;;;;5051531;28;20218;-83
2022/10/31 06:02:45;;;;;;;15.03;6.40;;;7.20;99.90;;;;;;5034845;28;20180;-83
2022/10/31 06:05:11;;;;;;;12.90;6.77;;;7.20;99.90;;;;;;5017859;28;20541;-83
2022/10/31 06:07:36;;;;;;;13.57;6.57;;;7.20;99.90;;;;;;5052845;28;20183;-83
2022/10/31 06:10:05;;;;;;;15.50;7.03;;;7.30;99.90;;;;;;5017530;28;20715;-83
2022/10/31 06:12:31;;;;;;;16.20;7.53;;;7.30;99.90;;;;;;5052258;28;20220;-82
2022/10/31 06:14:57;;;;;;;17.33;8.40;;;7.40;99.90;;;;;;5034261;28;20636;-83
2022/10/31 06:17:23;;;;;;;24.07;7.90;;;;;;;;;;5035602;28;20180;-83
2022/10/31 06:19:50;;;;;;;21.97;8.73;;;;;;;;;;5055522;28;20226;-83
2022/10/31 06:22:16;;;;;;;19.50;7.80;;;7.50;99.90;;;;;;5054276;28;20626;-81
2022/10/31 06:24:42;;;;;;;14.43;7.37;;;7.50;99.90;;;;;;5035827;28;20184;-82
2022/10/31 06:27:07;;;;;;;14.43;6.47;;;7.50;99.90;;;;;;5053616;28;20239;-82
2022/10/31 06:29:33;;;;;;;17.70;7.83;;;7.60;99.90;;;;;;5054402;28;20711;-82
2022/10/31 06:31:59;;;;;;;11.80;7.43;;;7.50;99.90;;;;;;5036053;28;20539;-82
2022/10/31 06:34:24;;;;;;;10.87;6.33;;;7.50;99.90;;;;;;5018510;28;20209;-82
2022/10/31 06:36:50;;;;;;;13.30;7.63;;;7.50;99.90;;;;;;5032589;28;20214;-81
2022/10/31 06:39:16;;;;;;;17.70;7.30;;;7.50;99.90;;;;;;5032996;28;20208;-82
2022/10/31 06:41:41;;;;;;;14.63;7.27;;;7.60;99.90;;;;;;5055623;28;20184;-82
2022/10/31 06:44:07;;;;;;;10.40;6.87;;;7.70;99.90;;;;;;5054897;28;20252;-82
2022/10/31 06:46:33;;;;;;;19.37;7.70;;;7.80;99.90;;;;;;5036849;28;20176;-83
2022/10/31 06:48:59;;;;;;;12.23;7.00;;;7.90;99.90;;;;;;5036313;28;20191;-83
2022/10/31 06:51:25;;;;;;;16.93;8.03;;;7.90;99.90;;;;;;5054722;28;20180;-82
2022/10/31 06:53:51;;;;;;;21.13;8.07;;;7.90;99.90;;;;;;5036069;28;20239;-82
2022/10/31 06:56:16;;;;;;;18.37;7.43;;;8.00;99.90;;;;;;5035404;28;20180;-83
2022/10/31 06:58:42;;;;;;;16.57;7.60;;;8.10;99.90;;;;;;5035500;28;20691;-82
2022/10/31 07:01:07;;;;;;;16.13;8.03;;;8.20;99.90;;;;;;5053791;28;20187;-82
2022/10/31 07:03:33;;;;;;;15.20;8.10;;;8.20;99.90;;;;;;5035513;28;20332;-83
2022/10/31 07:05:59;;;;;;;16.90;8.30;;;;;;;;;;5018921;28;20713;-83
2022/10/31 07:08:25;;;;;;;14.23;7.87;;;8.30;99.90;;;;;;5054224;28;20270;-82
2022/10/31 07:10:56;;;;;;;11.43;6.40;;;8.30;99.90;;;;;;5037513;28;20262;-83
2022/10/31 07:13:25;;;;;;;11.33;6.03;;;8.30;99.90;;;;;;5054578;28;20169;-83
2022/10/31 07:15:52;;;;;;;11.00;6.60;;;8.30;99.90;;;;;;5024337;28;20283;-83
2022/10/31 07:18:18;;;;;;;12.03;7.00;;;8.30;99.90;;;;;;5038013;28;20184;-84
2022/10/31 07:20:43;;;;;;;14.77;7.17;;;8.40;99.90;;;;;;5036649;28;20774;-84
2022/10/31 07:23:10;;;;;;;15.63;7.33;;;8.50;99.90;;;;;;5036862;28;20191;-83
2022/10/31 07:25:37;;;;;;;14.50;7.07;;;8.60;99.90;;;;;;5054841;28;20693;-83
2022/10/31 07:28:03;;;;;;;20.03;6.67;;;8.60;99.90;;;;;;5054534;28;20181;-83
2022/10/31 07:30:29;;;;;;;10.57;6.57;;;8.70;99.90;;;;;;5040042;28;20678;-84
2022/10/31 07:32:55;;;;;;;11.27;5.70;;;8.80;99.90;;;;;;5055786;28;20180;-82
2022/10/31 07:35:27;;;;;;;7.40;4.47;;;8.90;99.90;;;;;;5055391;28;20183;-82
2022/10/31 07:37:54;;;;;;;7.23;4.40;;;9.00;99.90;;;;;;5054960;28;20171;-81
2022/10/31 07:40:21;;;;;;;9.57;5.17;;;9.10;99.90;;;;;;5054419;28;20241;-80
2022/10/31 07:42:48;;;;;;;7.97;5.23;;;9.20;99.90;;;;;;5053394;28;20241;-81
2022/10/31 07:45:19;;;;;;;10.67;5.07;;;9.30;99.90;;;;;;5036642;28;20175;-81
2022/10/31 07:47:47;;;;;;;8.50;5.10;;;9.30;99.90;;;;;;5054062;28;20200;-81
2022/10/31 07:50:18;;;;;;;8.93;4.90;;;9.40;99.90;;;;;;5053926;28;20236;-81
2022/10/31 07:52:44;;;;;;;10.17;4.83;;;9.40;99.90;;;;;;5034979;28;20263;-82
2022/10/31 07:55:10;;;;;;;9.97;5.17;;;9.50;99.90;;;;;;5054227;28;20770;-80
2022/10/31 07:57:36;;;;;;;7.40;4.97;;;;;;;;;;5054452;28;20263;-81
2022/10/31 08:00:11;;;;;;;10.93;4.70;;;9.70;99.90;;;;;;5055498;28;20322;-81
2022/10/31 08:02:37;;;;;;;12.47;5.13;;;9.80;99.90;;;;;;5038249;28;20183;-81
2022/10/31 08:05:03;;;;;;;9.77;5.43;;;9.80;99.90;;;;;;5060847;28;20183;-81
2022/10/31 08:07:29;;;;;;;10.83;4.33;;;8.50;99.90;;;;;;5039961;28;20254;-81
2022/10/31 08:09:55;;;;;;;10.03;5.57;;;10.00;99.90;;;;;;5061387;28;20286;-81
2022/10/31 08:12:21;;;;;;;9.73;4.97;;;10.10;99.90;;;;;;5055933;28;20184;-81
2022/10/31 08:14:47;;;;;;;8.53;6.07;;;10.50;99.90;;;;;;5078532;28;20184;-82
2022/10/31 08:17:12;;;;;;;13.77;5.03;;;10.30;99.90;;;;;;5079520;28;20203;-82
2022/10/31 08:19:38;;;;;;;13.90;6.53;;;10.40;99.90;;;;;;5075288;28;20211;-82
2022/10/31 08:22:04;;;;;;;39.20;16.93;;;10.40;99.90;;;;;;5039221;28;20192;-82
2022/10/31 08:24:29;;;;;;;24.80;11.13;;;10.50;99.90;;;;;;5053773;28;20180;-81
2022/10/31 08:26:55;;;;;;;22.47;10.90;;;10.60;99.90;;;;;;5058582;28;20191;-82
2022/10/31 08:29:21;;;;;;;17.47;8.23;;;10.70;99.90;;;;;;5077245;28;20175;-82
2022/10/31 08:31:46;;;;;;;9.43;5.90;;;10.80;99.90;;;;;;5074437;28;20183;-82
2022/10/31 08:34:12;;;;;;;11.17;7.50;;;10.80;99.90;;;;;;5063807;28;20210;-82
2022/10/31 08:36:37;;;;;;;12.20;6.10;;;10.90;99.90;;;;;;5024058;28;20683;-82
2022/10/31 08:39:03;;;;;;;14.00;6.27;;;10.90;99.90;;;;;;5021999;28;20207;-83
2022/10/31 08:41:29;;;;;;;10.27;6.17;;;11.00;99.90;;;;;;5022632;28;20195;-83
2022/10/31 08:43:55;;;;;;;15.98;7.22;;;11.00;99.90;;;;;;5057246;28;20180;-81
2022/10/31 08:46:21;;;;;;;15.10;7.65;;;11.00;99.90;;;;;;5056278;28;20672;-82
2022/10/31 08:48:50;;;;;;;12.80;6.90;;;11.20;99.90;;;;;;5056732;28;20182;-83
2022/10/31 08:51:15;;;;;;;14.07;7.70;;;11.20;99.90;;;;;;5056585;28;20348;-81
2022/10/31 08:53:41;;;;;;;13.55;6.93;;;11.30;99.90;;;;;;5057135;28;20754;-82
2022/10/31 08:56:07;;;;;;;16.88;7.88;;;11.40;99.90;;;;;;5056550;28;20661;-81
2022/10/31 08:58:33;;;;;;;13.95;7.72;;;11.40;99.90;;;;;;5038286;28;20210;-81
2022/10/31 09:01:00;;;;;;;14.20;7.43;;;11.30;99.90;;;;;;5055886;28;20180;-80
2022/10/31 09:03:30;;;;;;;14.68;8.48;;;11.30;99.90;;;;;;5054784;28;20173;-81
2022/10/31 09:05:58;;;;;;;19.15;9.82;;;11.30;99.90;;;;;;5054492;28;20168;-81
2022/10/31 09:08:24;;;;;;;20.70;10.52;;;11.40;99.90;;;;;;5035599;28;20191;-81
2022/10/31 09:10:50;;;;;;;23.50;9.85;;;11.50;99.90;;;;;;5036402;28;20246;-82
2022/10/31 09:13:19;;;;;;;21.55;10.73;;;11.60;99.90;;;;;;5053533;28;20632;-82
2022/10/31 09:15:48;;;;;;;22.90;10.10;;;11.70;99.90;;;;;;5053289;28;20167;-82
2022/10/31 09:18:16;;;;;;;15.57;8.70;;;11.70;99.90;;;;;;5052830;28;20167;-82
2022/10/31 09:20:43;;;;;;;21.02;9.93;;;11.70;99.90;;;;;;5035228;28;20593;-81
2022/10/31 09:23:11;;;;;;;19.65;9.82;;;11.60;99.90;;;;;;5052705;28;20706;-81
2022/10/31 09:25:37;;;;;;;22.42;9.68;;;11.70;99.90;;;;;;5052944;28;20172;-81
2022/10/31 09:28:04;;;;;;;19.75;10.43;;;11.90;99.90;;;;;;5035093;28;20186;-81
2022/10/31 09:30:32;;;;;;;23.03;9.67;;;12.00;99.90;;;;;;5052259;28;20203;-82
2022/10/31 09:33:00;;;;;;;17.92;9.88;;;12.00;99.90;;;;;;5052907;28;20616;-82
2022/10/31 09:35:26;;;;;;;17.50;9.27;;;12.10;99.90;;;;;;5034772;28;20279;-82
2022/10/31 09:38:00;;;;;;;24.42;11.23;;;12.20;99.90;;;;;;5052668;28;20180;-82
2022/10/31 09:40:37;;;;;;;17.73;8.02;;;12.40;99.90;;;;;;5052790;28;20203;-82
2022/10/31 09:43:24;;;;;;;18.15;8.65;;;12.40;99.90;;;;;;5035165;28;20203;-80
2022/10/31 09:45:59;;;;;;;22.17;9.85;;;12.40;99.90;;;;;;5053236;28;20251;-81
2022/10/31 09:48:34;;;;;;;17.90;8.70;;;12.30;99.90;;;;;;5052635;28;20163;-81
2022/10/31 09:51:11;;;;;;;17.27;8.65;;;12.30;99.90;;;;;;5052850;28;20675;-82
2022/10/31 09:54:04;;;;;;;15.18;8.00;;;12.40;99.90;;;;;;5052194;28;20223;-82
2022/10/31 09:56:31;;;;;;;18.40;9.32;;;12.60;99.90;;;;;;5034612;28;20176;-81
2022/10/31 09:59:00;;;;;;;18.35;9.35;;;12.80;99.90;;;;;;5051957;28;20199;-81
2022/10/31 10:01:32;;;;;;;20.08;9.27;;;13.10;99.90;;;;;;5052705;28;20206;-81
2022/10/31 10:04:33;;;;;;;21.00;9.75;;;13.20;99.90;;;;;;5035190;28;20219;-82
2022/10/31 10:07:00;;;;;;;21.52;9.40;;;13.30;99.90;;;;;;5045742;28;20190;-80
2022/10/31 10:09:27;;;;;;;15.23;8.50;;;13.50;99.90;;;;;;5051356;28;20184;-81
2022/10/31 10:12:04;;;;;;;16.38;9.20;;;13.70;99.90;;;;;;5050898;28;20172;-83
2022/10/31 10:14:42;;;;;;;14.90;8.80;;;13.90;99.90;;;;;;5051802;28;20171;-84
2022/10/31 10:17:17;;;;;;;17.85;9.27;;;14.10;99.90;;;;;;5055516;28;20179;-80
2022/10/31 10:20:07;;;;;;;16.13;9.40;;;14.30;99.90;;;;;;5055374;28;20564;-82
2022/10/31 10:22:52;;;;;;;20.75;9.52;;;14.50;99.90;;;;;;5038279;28;20180;-82
2022/10/31 10:25:33;;;;;;;21.75;9.18;;;14.60;99.90;;;;;;5055954;28;20174;-83
2022/10/31 10:28:02;;;;;;;19.20;9.00;;;14.70;99.90;;;;;;5056466;28;20190;-82
2022/10/31 10:31:02;;;;;;;16.73;9.20;;;14.70;99.90;;;;;;5056066;28;20644;-82
2022/10/31 10:33:35;;;;;;;17.45;8.27;;;14.80;99.90;;;;;;5055017;28;20187;-82
2022/10/31 10:36:20;;;;;;;14.65;8.38;;;15.00;99.90;;;;;;5055842;28;20168;-81
2022/10/31 10:39:04;;;;;;;22.73;9.20;;;15.00;99.90;;;;;;5056486;28;20195;-82
2022/10/31 10:41:33;;;;;;;13.00;8.00;;;15.00;99.90;;;;;;5055039;28;20247;-82
2022/10/31 10:43:59;;;;;;;16.75;7.85;;;15.10;99.90;;;;;;5038742;28;20172;-82
2022/10/31 10:49:50;;;;;;;13.98;6.97;;;15.10;99.90;;;;;;5041585;28;20582;-81
2022/10/31 10:52:59;;;;;;;13.57;7.22;;;15.20;99.90;;;;;;5056299;28;20746;-81
2022/10/31 10:56:13;;;;;;;13.70;7.35;;;15.20;99.90;;;;;;5056749;28;20193;-81
2022/10/31 10:58:42;;;;;;;11.75;5.93;;;15.40;99.90;;;;;;4960594;28;20210;-82
2022/10/31 11:01:13;;;;;;;12.68;6.80;;;15.50;99.90;;;;;;4959069;28;20218;-80
2022/10/31 11:03:39;;;;;;;11.25;6.80;;;15.60;99.90;;;;;;5022260;28;20188;-81
2022/10/31 11:06:17;;;;;;;8.30;5.82;;;15.60;99.90;;;;;;5037891;28;20207;-80
2022/10/31 11:08:42;;;;;;;11.02;6.25;;;15.60;99.90;;;;;;5057099;28;20175;-80
2022/10/31 11:11:29;;;;;;;5.88;4.00;;;15.60;99.90;;;;;;5056479;28;20545;-81
2022/10/31 11:14:12;;;;;;;11.00;5.50;;;15.70;99.90;;;;;;5056492;28;20198;-82
2022/10/31 11:16:42;;;;;;;17.75;8.40;;;15.80;99.90;;;;;;5054390;28;20644;-82
2022/10/31 11:19:12;;;;;;;18.80;8.43;;;16.10;99.90;;;;;;5057815;28;20198;-81
2022/10/31 11:21:38;;;;;;;17.35;8.10;;;16.30;99.90;;;;;;5054962;28;20188;-79
2022/10/31 11:24:09;;;;;;;23.73;9.90;;;16.50;99.90;;;;;;5054957;28;20172;-81
2022/10/31 11:26:37;;;;;;;17.20;9.13;;;16.40;99.90;;;;;;5053576;28;20598;-80
2022/10/31 11:29:05;;;;;;;20.10;10.50;;;16.40;99.90;;;;;;5054460;28;20570;-81
2022/10/31 11:31:34;;;;;;;17.95;9.05;;;16.40;99.90;;;;;;5055113;28;20184;-81
2022/10/31 11:34:02;;;;;;;20.92;9.98;;;16.30;99.90;;;;;;5054511;28;20233;-80
2022/10/31 11:36:39;;;;;;;22.40;9.93;;;16.20;99.90;;;;;;5054998;28;20276;-81
2022/10/31 11:39:13;;;;;;;20.17;8.55;;;16.30;99.90;;;;;;5054486;28;20671;-82
2022/10/31 11:41:42;;;;;;;17.42;9.40;;;16.30;99.90;;;;;;5055277;28;20175;-81
2022/10/31 11:44:13;;;;;;;15.32;8.23;;;16.50;99.90;;;;;;5054612;28;20203;-80
2022/10/31 11:46:57;;;;;;;16.27;8.48;;;16.60;99.90;;;;;;5055207;28;20172;-81
2022/10/31 11:49:39;;;;;;;23.42;10.65;;;16.80;99.90;;;;;;5055552;28;20175;-79
2022/10/31 11:52:32;;;;;;;24.10;10.95;;;17.10;99.90;;;;;;5054563;28;20164;-80
2022/10/31 11:55:13;;;;;;;21.05;10.50;;;17.50;99.90;;;;;;5054041;28;20188;-81
2022/10/31 11:57:50;;;;;;;25.17;11.65;;;17.40;99.90;;;;;;5055631;28;20182;-80
2022/10/31 12:00:29;;;;;;;28.67;11.50;;;17.30;99.90;;;;;;5055004;28;20299;-81
2022/10/31 12:03:22;;;;;;;23.73;11.23;;;17.20;99.90;;;;;;5036972;28;20194;-81
2022/10/31 12:06:04;;;;;;;21.70;11.25;;;17.10;99.90;;;;;;5054375;28;20172;-80
2022/10/31 12:08:33;;;;;;;22.48;11.15;;;17.00;99.90;;;;;;5054560;28;20252;-82
2022/10/31 12:11:30;;;;;;;37.72;23.13;;;16.80;99.90;;;;;;5037086;28;20180;-82
2022/10/31 12:14:13;;;;;;;19.27;11.88;;;16.50;99.90;;;;;;5054388;28;20233;-81
2022/10/31 12:17:03;;;;;;;20.58;10.80;;;16.40;99.90;;;;;;5057292;28;20640;-83
2022/10/31 12:19:47;;;;;;;25.83;11.52;;;16.30;99.90;;;;;;5055547;28;20273;-82
2022/10/31 12:22:26;;;;;;;21.42;10.52;;;16.30;99.90;;;;;;5040298;28;20183;-81
2022/10/31 12:25:24;;;;;;;20.90;9.82;;;16.30;99.90;;;;;;5059810;28;20227;-82
2022/10/31 12:28:08;;;;;;;19.10;9.77;;;16.30;99.90;;;;;;5059690;28;20155;-82
2022/10/31 12:30:40;;;;;;;19.52;9.30;;;16.40;99.90;;;;;;5053761;28;20275;-82
2022/10/31 12:33:36;;;;;;;20.10;9.55;;;16.50;99.90;;;;;;5054130;28;20164;-83
2022/10/31 12:36:38;;;;;;;18.73;9.43;;;16.70;99.90;;;;;;4981963;28;20205;-82
2022/10/31 12:39:26;;;;;;;19.02;9.20;;;16.90;99.90;;;;;;5052828;28;20233;-82
2022/10/31 12:42:07;;;;;;;14.55;8.05;;;17.10;99.90;;;;;;5053500;28;20215;-81
2022/10/31 12:44:50;;;;;;;21.60;9.07;;;17.20;99.90;;;;;;5053166;28;20151;-81
2022/10/31 12:47:35;;;;;;;20.83;10.35;;;17.30;99.90;;;;;;5053373;28;20170;-85
2022/10/31 12:50:19;;;;;;;16.92;9.02;;;17.50;99.90;;;;;;5053062;28;20183;-82
2022/10/31 12:52:50;;;;;;;23.50;9.38;;;17.70;99.90;;;;;;5053257;28;20291;-82
2022/10/31 12:55:40;;;;;;;21.17;9.77;;;17.90;99.90;;;;;;5053779;28;20175;-82
2022/10/31 12:58:28;;;;;;;20.00;9.98;;;18.10;99.90;;;;;;5053351;28;20167;-82
2022/10/31 13:01:19;;;;;;;19.70;9.73;;;18.60;99.90;;;;;;5053601;28;20237;-82
2022/10/31 13:04:19;;;;;;;17.17;8.70;;;19.00;99.90;;;;;;5035987;28;20517;-81
2022/10/31 13:06:56;;;;;;;23.45;10.10;;;19.20;99.90;;;;;;5052442;28;20180;-82